Bedum, Netherlands
Current Conditions -  °F | °C
As of 6:25 AM on Sunday 23 Nov 2014 (Local Time) from EHGG Reporting Station
Few Clouds Few Clouds  
Wind Chill: 45°   Ceiling: Unl
Heat Index: 48°   Visibility: 5mi
Dew Point: 45°   Wind: 7mph
Humidity: 87%   Direction: 150°SSE
Pressure: 30.03"   Gusts: NA
Location:  53.3°N, 6.6°E
Report Text: EHGG 230525Z AUTO 15006KT 8000 FEW015CB 09/07 Q1017
Loading
Personal Weather Stations






























Interactive Weather Map New forecast layout! Learn more

10-Day Weather Forecast

Advertisements
Track Severe Weather on mobile